CSCL Long Beach — VRCZ7 — position and weather

sailwx.info

Track history (hours):
 
Tides and Currents Weather Stations Pressure Air Temp Water Temp Dewpoint Dewpoint Depression Visibility Wind Speed Wind Dir Waves Ship Positions

CSCL Long Beach

Last reported at 2017-Mar-23 13:05 UTC. Time now 2017-Mar-23 18:15 UTC.
Position N 35°04' E 128°49'.

Length 336.7 m; beam 45.6 m; draft 15 m.

Type: Ship. MMSI: 477883900.

Date/timePositionNaut miles runAvg speedWind from/ knotsBaromVisibWave heightAir tempDewpointWater temp
2017-Mar-23 13:05N 35°04' E 128°49'2 3.3
2017-Mar-23 12:26N 35°03' E 128°47'1112.2
2017-Mar-23 11:33N 34°53' E 128°52'45710.1
2017-Mar-21 14:29N 29°58' E 121°59'1311.8
2017-Mar-21 13:25N 29°53' E 122°12'75 1.5
2017-Mar-19 12:33N 31°06' E 122°29'1110.8
2017-Mar-19 11:34N 31°07' E 122°17'1313.3
2017-Mar-19 10:34N 31°14' E 122°04'1010.1
2017-Mar-19 09:33N 31°16' E 121°52'1111.4
2017-Mar-19 08:33N 31°21' E 121°40'5 4.9
2017-Mar-19 07:32N 31°23' E 121°35'0 0.0
2017-Mar-19 06:32N 31°23' E 121°35'0 0.0
2017-Mar-19 05:32N 31°23' E 121°35'0 0.0
2017-Mar-19 04:32N 31°23' E 121°35'0 0.0
2017-Mar-19 03:29N 31°23' E 121°35'0 0.1
2017-Mar-19 02:32N 31°23' E 121°35'0 0.1
2017-Mar-19 01:32N 31°23' E 121°35'0 0.0
2017-Mar-19 00:32N 31°23' E 121°35'0 0.0
2017-Mar-18 23:32N 31°23' E 121°35'0 0.0
2017-Mar-18 22:32N 31°23' E 121°35'0 0.0
2017-Mar-18 21:29N 31°23' E 121°35'0 0.0
2017-Mar-18 20:32N 31°23' E 121°35'0 0.0
2017-Mar-18 19:29N 31°23' E 121°35'0 0.0
2017-Mar-18 18:32N 31°23' E 121°35'0 0.0
2017-Mar-18 17:29N 31°23' E 121°35'0 0.0
2017-Mar-18 16:32N 31°23' E 121°35'0 0.0
2017-Mar-18 15:32N 31°23' E 121°35'0 0.0
2017-Mar-18 14:29N 31°23' E 121°35'0 0.0
2017-Mar-18 13:32N 31°23' E 121°35'0 0.0
2017-Mar-18 12:32N 31°23' E 121°35'0 0.0
2017-Mar-18 11:32N 31°23' E 121°35'0 0.0
2017-Mar-18 10:32N 31°23' E 121°35'0 0.0
2017-Mar-18 09:32N 31°23' E 121°35'0 0.0
2017-Mar-18 08:23N 31°23' E 121°35'2 2.0
2017-Mar-18 07:33N 31°23' E 121°37'9 9.0
2017-Mar-18 06:33N 31°18' E 121°46'1111.1
2017-Mar-18 05:33N 31°15' E 121°58'1010.0
2017-Mar-18 04:33N 31°12' E 122°09'1010.0
2017-Mar-18 03:33N 31°06' E 122°19'9 8.8
2017-Mar-18 02:33N 31°07' E 122°29'14 1.1
2017-Mar-17 13:22N 31°04' E 122°46'0 0.1
2017-Mar-17 12:16N 31°04' E 122°46'0 0.0
2017-Mar-17 01:22N 31°04' E 122°46'0 0.1
2017-Mar-17 00:28N 31°04' E 122°46'0 0.0
2017-Mar-16 23:13N 31°04' E 122°46'0 0.1
2017-Mar-16 22:28N 31°04' E 122°46'  
Track history (hours):
 
Tides and Currents Weather Stations Pressure Air Temp Water Temp Dewpoint Dewpoint Depression Visibility Wind Speed Wind Dir Waves Ship Positions

CSCL Long Beach

Last reported at 2017-Mar-23 13:05 UTC. Time now 2017-Mar-23 18:15 UTC.
Position N 35°04' E 128°49'.

Length 336.7 m; beam 45.6 m; draft 15 m.

Type: Ship. MMSI: 477883900.

Date/timePositionNaut miles runAvg speedWind from/ knotsBaromVisibWave heightAir tempDewpointWater temp
2017-Mar-23 13:05N 35°04' E 128°49'2 3.3
2017-Mar-23 12:26N 35°03' E 128°47'1112.2
2017-Mar-23 11:33N 34°53' E 128°52'45710.1
2017-Mar-21 14:29N 29°58' E 121°59'1311.8
2017-Mar-21 13:25N 29°53' E 122°12'75 1.5
2017-Mar-19 12:33N 31°06' E 122°29'1110.8
2017-Mar-19 11:34N 31°07' E 122°17'1313.3
2017-Mar-19 10:34N 31°14' E 122°04'1010.1
2017-Mar-19 09:33N 31°16' E 121°52'1111.4
2017-Mar-19 08:33N 31°21' E 121°40'5 4.9
2017-Mar-19 07:32N 31°23' E 121°35'0 0.0
2017-Mar-19 06:32N 31°23' E 121°35'0 0.0
2017-Mar-19 05:32N 31°23' E 121°35'0 0.0
2017-Mar-19 04:32N 31°23' E 121°35'0 0.0
2017-Mar-19 03:29N 31°23' E 121°35'0 0.1
2017-Mar-19 02:32N 31°23' E 121°35'0 0.1
2017-Mar-19 01:32N 31°23' E 121°35'0 0.0
2017-Mar-19 00:32N 31°23' E 121°35'0 0.0
2017-Mar-18 23:32N 31°23' E 121°35'0 0.0
2017-Mar-18 22:32N 31°23' E 121°35'0 0.0
2017-Mar-18 21:29N 31°23' E 121°35'0 0.0
2017-Mar-18 20:32N 31°23' E 121°35'0 0.0
2017-Mar-18 19:29N 31°23' E 121°35'0 0.0
2017-Mar-18 18:32N 31°23' E 121°35'0 0.0
2017-Mar-18 17:29N 31°23' E 121°35'0 0.0
2017-Mar-18 16:32N 31°23' E 121°35'0 0.0
2017-Mar-18 15:32N 31°23' E 121°35'0 0.0
2017-Mar-18 14:29N 31°23' E 121°35'0 0.0
2017-Mar-18 13:32N 31°23' E 121°35'0 0.0
2017-Mar-18 12:32N 31°23' E 121°35'0 0.0
2017-Mar-18 11:32N 31°23' E 121°35'0 0.0
2017-Mar-18 10:32N 31°23' E 121°35'0 0.0
2017-Mar-18 09:32N 31°23' E 121°35'0 0.0
2017-Mar-18 08:23N 31°23' E 121°35'2 2.0
2017-Mar-18 07:33N 31°23' E 121°37'9 9.0
2017-Mar-18 06:33N 31°18' E 121°46'1111.1
2017-Mar-18 05:33N 31°15' E 121°58'1010.0
2017-Mar-18 04:33N 31°12' E 122°09'1010.0
2017-Mar-18 03:33N 31°06' E 122°19'9 8.8
2017-Mar-18 02:33N 31°07' E 122°29'14 1.1
2017-Mar-17 13:22N 31°04' E 122°46'0 0.1
2017-Mar-17 12:16N 31°04' E 122°46'0 0.0
2017-Mar-17 01:22N 31°04' E 122°46'0 0.1
2017-Mar-17 00:28N 31°04' E 122°46'0 0.0
2017-Mar-16 23:13N 31°04' E 122°46'0 0.1
2017-Mar-16 22:28N 31°04' E 122°46'  

Dump ship's entire track history